sensor_id;sensor_type;location;lat;lon;timestamp;P1;durP1;ratioP1;P2;durP2;ratioP2
68484;SDS011;55472;50.060;21.960;2022-12-20T00:01:12;11.13;;;3.92;;
68484;SDS011;55472;50.060;21.960;2022-12-20T00:03:41;11.83;;;3.93;;
68484;SDS011;55472;50.060;21.960;2022-12-20T00:06:08;10.40;;;3.05;;
68484;SDS011;55472;50.060;21.960;2022-12-20T00:08:36;15.18;;;5.13;;
68484;SDS011;55472;50.060;21.960;2022-12-20T00:11:04;14.23;;;4.20;;
68484;SDS011;55472;50.060;21.960;2022-12-20T00:13:32;12.18;;;4.57;;
68484;SDS011;55472;50.060;21.960;2022-12-20T00:16:12;13.10;;;4.07;;
68484;SDS011;55472;50.060;21.960;2022-12-20T00:18:44;12.80;;;4.10;;
68484;SDS011;55472;50.060;21.960;2022-12-20T00:21:11;11.05;;;3.40;;
68484;SDS011;55472;50.060;21.960;2022-12-20T00:23:39;14.90;;;4.22;;
68484;SDS011;55472;50.060;21.960;2022-12-20T00:26:09;10.48;;;4.30;;
68484;SDS011;55472;50.060;21.960;2022-12-20T00:28:46;11.70;;;4.03;;
68484;SDS011;55472;50.060;21.960;2022-12-20T00:31:12;12.93;;;3.92;;
68484;SDS011;55472;50.060;21.960;2022-12-20T00:33:44;11.32;;;2.72;;
68484;SDS011;55472;50.060;21.960;2022-12-20T00:36:13;10.18;;;3.13;;
68484;SDS011;55472;50.060;21.960;2022-12-20T00:38:40;10.57;;;3.80;;
68484;SDS011;55472;50.060;21.960;2022-12-20T00:41:11;9.17;;;3.40;;
68484;SDS011;55472;50.060;21.960;2022-12-20T00:43:40;12.13;;;4.50;;
68484;SDS011;55472;50.060;21.960;2022-12-20T00:46:07;12.98;;;4.40;;
68484;SDS011;55472;50.060;21.960;2022-12-20T00:48:35;11.88;;;3.58;;
68484;SDS011;55472;50.060;21.960;2022-12-20T00:51:06;13.98;;;3.92;;
68484;SDS011;55472;50.060;21.960;2022-12-20T00:53:37;11.83;;;3.63;;
68484;SDS011;55472;50.060;21.960;2022-12-20T00:56:04;10.68;;;3.78;;
68484;SDS011;55472;50.060;21.960;2022-12-20T00:58:32;11.93;;;3.75;;
68484;SDS011;55472;50.060;21.960;2022-12-20T01:00:59;12.15;;;4.00;;
68484;SDS011;55472;50.060;21.960;2022-12-20T01:03:25;12.02;;;3.47;;
68484;SDS011;55472;50.060;21.960;2022-12-20T01:05:52;11.27;;;3.57;;
68484;SDS011;55472;50.060;21.960;2022-12-20T01:08:20;12.05;;;3.90;;
68484;SDS011;55472;50.060;21.960;2022-12-20T01:10:47;11.13;;;3.83;;
68484;SDS011;55472;50.060;21.960;2022-12-20T01:13:27;13.77;;;4.75;;
68484;SDS011;55472;50.060;21.960;2022-12-20T01:15:54;14.75;;;4.43;;
68484;SDS011;55472;50.060;21.960;2022-12-20T01:18:21;12.00;;;3.90;;
68484;SDS011;55472;50.060;21.960;2022-12-20T01:20:47;10.60;;;3.95;;
68484;SDS011;55472;50.060;21.960;2022-12-20T01:23:13;10.50;;;3.60;;
68484;SDS011;55472;50.060;21.960;2022-12-20T01:25:39;10.15;;;3.53;;
68484;SDS011;55472;50.060;21.960;2022-12-20T01:28:06;12.68;;;3.58;;
68484;SDS011;55472;50.060;21.960;2022-12-20T01:30:32;11.07;;;3.67;;
68484;SDS011;55472;50.060;21.960;2022-12-20T01:32:58;8.45;;;3.05;;
68484;SDS011;55472;50.060;21.960;2022-12-20T01:35:24;9.38;;;3.17;;
68484;SDS011;55472;50.060;21.960;2022-12-20T01:37:50;8.70;;;3.33;;
68484;SDS011;55472;50.060;21.960;2022-12-20T01:40:16;10.83;;;4.30;;
68484;SDS011;55472;50.060;21.960;2022-12-20T01:42:42;13.88;;;4.22;;
68484;SDS011;55472;50.060;21.960;2022-12-20T01:45:12;11.60;;;3.80;;
68484;SDS011;55472;50.060;21.960;2022-12-20T01:47:47;10.05;;;3.28;;
68484;SDS011;55472;50.060;21.960;2022-12-20T01:50:14;10.73;;;3.77;;
68484;SDS011;55472;50.060;21.960;2022-12-20T01:52:41;11.80;;;4.05;;
68484;SDS011;55472;50.060;21.960;2022-12-20T01:55:11;13.43;;;3.42;;
68484;SDS011;55472;50.060;21.960;2022-12-20T01:57:44;11.50;;;3.80;;
68484;SDS011;55472;50.060;21.960;2022-12-20T02:00:28;12.43;;;4.07;;
68484;SDS011;55472;50.060;21.960;2022-12-20T02:02:54;11.93;;;4.00;;
68484;SDS011;55472;50.060;21.960;2022-12-20T02:05:25;10.27;;;3.60;;
68484;SDS011;55472;50.060;21.960;2022-12-20T02:07:53;10.15;;;3.97;;
68484;SDS011;55472;50.060;21.960;2022-12-20T02:10:21;13.73;;;3.50;;
68484;SDS011;55472;50.060;21.960;2022-12-20T02:12:56;11.55;;;4.13;;
68484;SDS011;55472;50.060;21.960;2022-12-20T02:15:53;11.73;;;3.90;;
68484;SDS011;55472;50.060;21.960;2022-12-20T02:18:22;12.27;;;3.72;;
68484;SDS011;55472;50.060;21.960;2022-12-20T02:29:38;9.57;;;3.60;;
68484;SDS011;55472;50.060;21.960;2022-12-20T02:32:29;12.15;;;3.20;;
68484;SDS011;55472;50.060;21.960;2022-12-20T02:35:04;11.57;;;3.78;;
68484;SDS011;55472;50.060;21.960;2022-12-20T02:37:33;9.93;;;3.83;;
68484;SDS011;55472;50.060;21.960;2022-12-20T02:40:00;12.88;;;3.97;;
68484;SDS011;55472;50.060;21.960;2022-12-20T02:42:29;10.37;;;3.77;;
68484;SDS011;55472;50.060;21.960;2022-12-20T02:44:59;9.77;;;3.05;;
68484;SDS011;55472;50.060;21.960;2022-12-20T02:47:48;10.40;;;3.40;;
68484;SDS011;55472;50.060;21.960;2022-12-20T02:50:20;10.77;;;3.72;;
68484;SDS011;55472;50.060;21.960;2022-12-20T02:52:51;8.60;;;3.83;;
68484;SDS011;55472;50.060;21.960;2022-12-20T02:55:19;12.60;;;4.30;;
68484;SDS011;55472;50.060;21.960;2022-12-20T03:01:11;10.30;;;3.75;;
68484;SDS011;55472;50.060;21.960;2022-12-20T03:03:48;11.00;;;3.60;;
68484;SDS011;55472;50.060;21.960;2022-12-20T03:06:16;14.05;;;4.15;;
68484;SDS011;55472;50.060;21.960;2022-12-20T03:08:41;8.47;;;2.70;;
68484;SDS011;55472;50.060;21.960;2022-12-20T03:11:08;11.35;;;3.45;;
68484;SDS011;55472;50.060;21.960;2022-12-20T03:13:34;12.15;;;3.88;;
68484;SDS011;55472;50.060;21.960;2022-12-20T03:16:00;11.70;;;4.00;;
68484;SDS011;55472;50.060;21.960;2022-12-20T03:18:26;8.63;;;3.13;;
68484;SDS011;55472;50.060;21.960;2022-12-20T03:20:53;12.55;;;4.13;;
68484;SDS011;55472;50.060;21.960;2022-12-20T03:23:19;10.60;;;3.38;;
68484;SDS011;55472;50.060;21.960;2022-12-20T03:25:46;14.70;;;4.22;;
68484;SDS011;55472;50.060;21.960;2022-12-20T03:28:12;12.43;;;3.97;;
68484;SDS011;55472;50.060;21.960;2022-12-20T03:30:38;12.90;;;4.20;;
68484;SDS011;55472;50.060;21.960;2022-12-20T03:33:04;12.02;;;4.18;;
68484;SDS011;55472;50.060;21.960;2022-12-20T03:35:31;15.65;;;4.60;;
68484;SDS011;55472;50.060;21.960;2022-12-20T03:37:57;12.68;;;4.80;;
68484;SDS011;55472;50.060;21.960;2022-12-20T03:40:23;11.15;;;3.45;;
68484;SDS011;55472;50.060;21.960;2022-12-20T03:42:49;9.33;;;3.90;;
68484;SDS011;55472;50.060;21.960;2022-12-20T03:45:15;16.27;;;4.60;;
68484;SDS011;55472;50.060;21.960;2022-12-20T03:47:41;12.60;;;4.07;;
68484;SDS011;55472;50.060;21.960;2022-12-20T03:50:08;14.88;;;4.72;;
68484;SDS011;55472;50.060;21.960;2022-12-20T03:52:34;10.70;;;5.07;;
68484;SDS011;55472;50.060;21.960;2022-12-20T03:55:01;14.90;;;5.00;;
68484;SDS011;55472;50.060;21.960;2022-12-20T03:57:27;11.75;;;4.13;;
68484;SDS011;55472;50.060;21.960;2022-12-20T03:59:54;13.65;;;4.80;;
68484;SDS011;55472;50.060;21.960;2022-12-20T04:02:20;15.25;;;4.60;;
68484;SDS011;55472;50.060;21.960;2022-12-20T04:04:47;14.40;;;4.33;;
68484;SDS011;55472;50.060;21.960;2022-12-20T04:07:13;11.25;;;4.20;;
68484;SDS011;55472;50.060;21.960;2022-12-20T04:09:40;13.60;;;4.28;;
68484;SDS011;55472;50.060;21.960;2022-12-20T04:12:06;15.20;;;4.82;;
68484;SDS011;55472;50.060;21.960;2022-12-20T04:14:32;14.43;;;5.13;;
68484;SDS011;55472;50.060;21.960;2022-12-20T04:17:00;12.70;;;4.70;;
68484;SDS011;55472;50.060;21.960;2022-12-20T04:19:26;13.68;;;4.55;;
68484;SDS011;55472;50.060;21.960;2022-12-20T04:21:52;15.60;;;5.25;;
68484;SDS011;55472;50.060;21.960;2022-12-20T04:24:20;10.68;;;3.65;;
68484;SDS011;55472;50.060;21.960;2022-12-20T04:26:46;13.88;;;4.75;;
68484;SDS011;55472;50.060;21.960;2022-12-20T04:29:14;14.27;;;4.23;;
68484;SDS011;55472;50.060;21.960;2022-12-20T04:31:40;16.60;;;4.90;;
68484;SDS011;55472;50.060;21.960;2022-12-20T04:34:06;14.38;;;4.75;;
68484;SDS011;55472;50.060;21.960;2022-12-20T04:36:32;11.50;;;4.43;;
68484;SDS011;55472;50.060;21.960;2022-12-20T04:38:59;15.20;;;4.80;;
68484;SDS011;55472;50.060;21.960;2022-12-20T04:41:25;12.00;;;4.23;;
68484;SDS011;55472;50.060;21.960;2022-12-20T04:43:53;13.25;;;4.43;;
68484;SDS011;55472;50.060;21.960;2022-12-20T04:46:21;15.90;;;4.53;;
68484;SDS011;55472;50.060;21.960;2022-12-20T04:48:49;11.70;;;5.07;;
68484;SDS011;55472;50.060;21.960;2022-12-20T04:51:16;13.27;;;4.40;;
68484;SDS011;55472;50.060;21.960;2022-12-20T04:53:42;15.77;;;5.43;;
68484;SDS011;55472;50.060;21.960;2022-12-20T04:56:13;13.18;;;3.78;;
68484;SDS011;55472;50.060;21.960;2022-12-20T04:58:44;14.57;;;4.72;;
68484;SDS011;55472;50.060;21.960;2022-12-20T05:01:12;15.32;;;5.50;;
68484;SDS011;55472;50.060;21.960;2022-12-20T05:03:42;15.57;;;5.05;;
68484;SDS011;55472;50.060;21.960;2022-12-20T05:06:08;15.67;;;5.40;;
68484;SDS011;55472;50.060;21.960;2022-12-20T05:08:35;13.32;;;4.43;;
68484;SDS011;55472;50.060;21.960;2022-12-20T05:11:02;26.20;;;6.68;;
68484;SDS011;55472;50.060;21.960;2022-12-20T05:13:30;17.83;;;6.30;;
68484;SDS011;55472;50.060;21.960;2022-12-20T05:15:57;33.83;;;8.32;;
68484;SDS011;55472;50.060;21.960;2022-12-20T05:18:24;15.33;;;5.80;;
68484;SDS011;55472;50.060;21.960;2022-12-20T05:20:53;15.30;;;4.97;;
68484;SDS011;55472;50.060;21.960;2022-12-20T05:23:40;26.65;;;7.20;;
68484;SDS011;55472;50.060;21.960;2022-12-20T05:26:25;38.53;;;9.65;;
68484;SDS011;55472;50.060;21.960;2022-12-20T05:28:59;14.43;;;4.38;;
68484;SDS011;55472;50.060;21.960;2022-12-20T05:31:25;16.90;;;5.30;;
68484;SDS011;55472;50.060;21.960;2022-12-20T05:33:51;47.80;;;12.30;;
68484;SDS011;55472;50.060;21.960;2022-12-20T05:36:18;24.83;;;7.72;;
68484;SDS011;55472;50.060;21.960;2022-12-20T05:38:45;14.10;;;4.90;;
68484;SDS011;55472;50.060;21.960;2022-12-20T05:41:11;11.88;;;4.25;;
68484;SDS011;55472;50.060;21.960;2022-12-20T05:43:37;11.83;;;3.67;;
68484;SDS011;55472;50.060;21.960;2022-12-20T05:46:03;16.23;;;5.07;;
68484;SDS011;55472;50.060;21.960;2022-12-20T05:48:29;13.70;;;4.65;;
68484;SDS011;55472;50.060;21.960;2022-12-20T05:50:55;14.05;;;4.85;;
68484;SDS011;55472;50.060;21.960;2022-12-20T05:53:22;10.33;;;4.23;;
68484;SDS011;55472;50.060;21.960;2022-12-20T05:55:49;14.82;;;4.28;;
68484;SDS011;55472;50.060;21.960;2022-12-20T05:58:17;12.60;;;4.50;;
68484;SDS011;55472;50.060;21.960;2022-12-20T06:00:43;12.88;;;4.45;;
68484;SDS011;55472;50.060;21.960;2022-12-20T06:03:10;10.32;;;3.95;;
68484;SDS011;55472;50.060;21.960;2022-12-20T06:05:38;10.17;;;3.83;;
68484;SDS011;55472;50.060;21.960;2022-12-20T06:08:04;10.65;;;3.65;;
68484;SDS011;55472;50.060;21.960;2022-12-20T06:10:32;12.95;;;4.13;;
68484;SDS011;55472;50.060;21.960;2022-12-20T06:13:00;12.57;;;4.00;;
68484;SDS011;55472;50.060;21.960;2022-12-20T06:15:27;14.00;;;4.53;;
68484;SDS011;55472;50.060;21.960;2022-12-20T06:17:54;10.80;;;4.40;;
68484;SDS011;55472;50.060;21.960;2022-12-20T06:20:20;12.70;;;4.32;;
68484;SDS011;55472;50.060;21.960;2022-12-20T06:22:49;14.65;;;4.90;;
68484;SDS011;55472;50.060;21.960;2022-12-20T06:25:16;13.35;;;4.28;;
68484;SDS011;55472;50.060;21.960;2022-12-20T06:27:46;17.45;;;4.95;;
68484;SDS011;55472;50.060;21.960;2022-12-20T06:30:12;15.83;;;4.93;;
68484;SDS011;55472;50.060;21.960;2022-12-20T06:32:39;13.82;;;4.43;;
68484;SDS011;55472;50.060;21.960;2022-12-20T06:35:05;12.00;;;4.30;;
68484;SDS011;55472;50.060;21.960;2022-12-20T06:37:32;15.48;;;5.22;;
68484;SDS011;55472;50.060;21.960;2022-12-20T06:39:57;24.00;;;6.65;;
68484;SDS011;55472;50.060;21.960;2022-12-20T06:42:24;18.60;;;5.83;;
68484;SDS011;55472;50.060;21.960;2022-12-20T06:44:50;13.68;;;4.55;;
68484;SDS011;55472;50.060;21.960;2022-12-20T06:47:16;15.02;;;4.82;;
68484;SDS011;55472;50.060;21.960;2022-12-20T06:49:42;23.85;;;5.65;;
68484;SDS011;55472;50.060;21.960;2022-12-20T06:52:09;16.77;;;5.80;;
68484;SDS011;55472;50.060;21.960;2022-12-20T06:54:35;30.47;;;8.17;;
68484;SDS011;55472;50.060;21.960;2022-12-20T06:57:01;19.98;;;6.25;;
68484;SDS011;55472;50.060;21.960;2022-12-20T06:59:27;25.80;;;6.32;;
68484;SDS011;55472;50.060;21.960;2022-12-20T07:01:53;13.90;;;5.00;;
68484;SDS011;55472;50.060;21.960;2022-12-20T07:04:19;24.83;;;6.83;;
68484;SDS011;55472;50.060;21.960;2022-12-20T07:06:46;41.63;;;9.68;;
68484;SDS011;55472;50.060;21.960;2022-12-20T07:09:11;12.13;;;4.60;;
68484;SDS011;55472;50.060;21.960;2022-12-20T07:11:38;20.25;;;6.05;;
68484;SDS011;55472;50.060;21.960;2022-12-20T07:14:04;13.00;;;4.03;;
68484;SDS011;55472;50.060;21.960;2022-12-20T07:16:30;15.77;;;5.03;;
68484;SDS011;55472;50.060;21.960;2022-12-20T07:18:56;22.30;;;6.35;;
68484;SDS011;55472;50.060;21.960;2022-12-20T07:21:22;19.65;;;6.38;;
68484;SDS011;55472;50.060;21.960;2022-12-20T07:23:48;23.80;;;6.70;;
68484;SDS011;55472;50.060;21.960;2022-12-20T07:26:14;21.13;;;6.67;;
68484;SDS011;55472;50.060;21.960;2022-12-20T07:28:41;24.20;;;6.20;;
68484;SDS011;55472;50.060;21.960;2022-12-20T07:31:08;18.75;;;5.85;;
68484;SDS011;55472;50.060;21.960;2022-12-20T07:33:34;19.25;;;5.47;;
68484;SDS011;55472;50.060;21.960;2022-12-20T07:36:02;19.33;;;6.20;;
68484;SDS011;55472;50.060;21.960;2022-12-20T07:38:35;13.43;;;4.77;;
68484;SDS011;55472;50.060;21.960;2022-12-20T07:41:05;23.25;;;6.63;;
68484;SDS011;55472;50.060;21.960;2022-12-20T07:43:36;20.48;;;6.00;;
68484;SDS011;55472;50.060;21.960;2022-12-20T07:46:03;13.70;;;4.13;;
68484;SDS011;55472;50.060;21.960;2022-12-20T07:48:29;20.90;;;5.80;;
68484;SDS011;55472;50.060;21.960;2022-12-20T07:50:58;17.37;;;6.40;;
68484;SDS011;55472;50.060;21.960;2022-12-20T07:53:28;15.02;;;4.63;;
68484;SDS011;55472;50.060;21.960;2022-12-20T07:55:57;11.95;;;4.53;;
68484;SDS011;55472;50.060;21.960;2022-12-20T07:58:25;10.65;;;3.92;;
68484;SDS011;55472;50.060;21.960;2022-12-20T08:00:53;17.73;;;4.68;;
68484;SDS011;55472;50.060;21.960;2022-12-20T08:03:28;10.77;;;3.70;;
68484;SDS011;55472;50.060;21.960;2022-12-20T08:06:01;12.90;;;4.90;;
68484;SDS011;55472;50.060;21.960;2022-12-20T08:08:46;17.38;;;5.35;;
68484;SDS011;55472;50.060;21.960;2022-12-20T08:11:16;14.88;;;5.10;;
68484;SDS011;55472;50.060;21.960;2022-12-20T08:13:43;14.35;;;4.90;;
68484;SDS011;55472;50.060;21.960;2022-12-20T08:16:13;12.47;;;4.47;;
68484;SDS011;55472;50.060;21.960;2022-12-20T08:18:42;16.48;;;5.32;;
68484;SDS011;55472;50.060;21.960;2022-12-20T08:21:12;13.25;;;4.03;;
68484;SDS011;55472;50.060;21.960;2022-12-20T08:23:44;13.98;;;5.13;;
68484;SDS011;55472;50.060;21.960;2022-12-20T08:26:11;15.35;;;5.13;;
68484;SDS011;55472;50.060;21.960;2022-12-20T08:28:37;16.20;;;5.77;;
68484;SDS011;55472;50.060;21.960;2022-12-20T08:31:04;15.65;;;5.53;;
68484;SDS011;55472;50.060;21.960;2022-12-20T08:33:33;17.60;;;5.07;;
68484;SDS011;55472;50.060;21.960;2022-12-20T08:36:02;14.43;;;5.25;;
68484;SDS011;55472;50.060;21.960;2022-12-20T08:38:31;19.95;;;6.47;;
68484;SDS011;55472;50.060;21.960;2022-12-20T08:41:05;14.80;;;4.77;;
68484;SDS011;55472;50.060;21.960;2022-12-20T08:43:38;13.80;;;4.80;;
68484;SDS011;55472;50.060;21.960;2022-12-20T08:46:06;11.93;;;5.10;;
68484;SDS011;55472;50.060;21.960;2022-12-20T08:48:34;18.27;;;4.38;;
68484;SDS011;55472;50.060;21.960;2022-12-20T08:51:05;15.68;;;5.40;;
68484;SDS011;55472;50.060;21.960;2022-12-20T08:53:34;13.37;;;4.43;;
68484;SDS011;55472;50.060;21.960;2022-12-20T08:56:02;19.98;;;6.80;;
68484;SDS011;55472;50.060;21.960;2022-12-20T08:58:36;17.17;;;5.70;;
68484;SDS011;55472;50.060;21.960;2022-12-20T09:01:05;15.60;;;6.13;;
68484;SDS011;55472;50.060;21.960;2022-12-20T09:03:35;16.25;;;5.22;;
68484;SDS011;55472;50.060;21.960;2022-12-20T09:09:10;14.73;;;5.38;;
68484;SDS011;55472;50.060;21.960;2022-12-20T09:12:03;12.10;;;3.97;;
68484;SDS011;55472;50.060;21.960;2022-12-20T09:14:42;14.30;;;5.60;;
68484;SDS011;55472;50.060;21.960;2022-12-20T09:17:09;12.45;;;4.88;;
68484;SDS011;55472;50.060;21.960;2022-12-20T09:20:15;13.07;;;5.57;;
68484;SDS011;55472;50.060;21.960;2022-12-20T09:26:15;15.90;;;5.95;;
68484;SDS011;55472;50.060;21.960;2022-12-20T09:29:04;16.80;;;5.40;;
68484;SDS011;55472;50.060;21.960;2022-12-20T09:31:42;17.08;;;6.22;;
68484;SDS011;55472;50.060;21.960;2022-12-20T09:34:45;13.60;;;5.20;;
68484;SDS011;55472;50.060;21.960;2022-12-20T09:37:18;18.77;;;6.22;;
68484;SDS011;55472;50.060;21.960;2022-12-20T09:39:53;14.32;;;5.57;;
68484;SDS011;55472;50.060;21.960;2022-12-20T09:42:20;18.70;;;5.70;;
68484;SDS011;55472;50.060;21.960;2022-12-20T09:45:04;16.23;;;5.53;;
68484;SDS011;55472;50.060;21.960;2022-12-20T09:47:36;12.83;;;4.73;;
68484;SDS011;55472;50.060;21.960;2022-12-20T09:50:04;14.02;;;5.22;;
68484;SDS011;55472;50.060;21.960;2022-12-20T09:55:32;18.92;;;6.05;;
68484;SDS011;55472;50.060;21.960;2022-12-20T10:01:31;14.80;;;5.37;;
68484;SDS011;55472;50.060;21.960;2022-12-20T10:04:05;14.82;;;4.93;;
68484;SDS011;55472;50.060;21.960;2022-12-20T10:17:49;13.80;;;5.07;;
68484;SDS011;55472;50.060;21.960;2022-12-20T10:23:59;13.93;;;4.72;;
68484;SDS011;55472;50.060;21.960;2022-12-20T10:26:35;12.88;;;5.13;;
68484;SDS011;55472;50.060;21.960;2022-12-20T10:29:01;14.10;;;4.72;;
68484;SDS011;55472;50.060;21.960;2022-12-20T10:31:27;15.23;;;5.00;;
68484;SDS011;55472;50.060;21.960;2022-12-20T10:33:53;14.23;;;5.20;;
68484;SDS011;55472;50.060;21.960;2022-12-20T10:36:27;17.92;;;6.25;;
68484;SDS011;55472;50.060;21.960;2022-12-20T10:39:39;15.90;;;5.60;;
68484;SDS011;55472;50.060;21.960;2022-12-20T10:42:54;14.90;;;5.53;;
68484;SDS011;55472;50.060;21.960;2022-12-20T10:54:10;15.00;;;4.47;;
68484;SDS011;55472;50.060;21.960;2022-12-20T10:56:57;15.30;;;5.45;;
68484;SDS011;55472;50.060;21.960;2022-12-20T10:59:30;14.63;;;4.53;;
68484;SDS011;55472;50.060;21.960;2022-12-20T11:02:07;14.23;;;4.82;;
68484;SDS011;55472;50.060;21.960;2022-12-20T11:05:40;14.82;;;4.82;;
68484;SDS011;55472;50.060;21.960;2022-12-20T11:08:21;16.02;;;4.93;;
68484;SDS011;55472;50.060;21.960;2022-12-20T11:11:24;16.83;;;5.57;;
68484;SDS011;55472;50.060;21.960;2022-12-20T11:13:49;14.07;;;5.27;;
68484;SDS011;55472;50.060;21.960;2022-12-20T11:18:59;16.38;;;4.50;;
68484;SDS011;55472;50.060;21.960;2022-12-20T11:22:33;12.82;;;4.90;;
68484;SDS011;55472;50.060;21.960;2022-12-20T11:34:27;13.70;;;4.53;;
68484;SDS011;55472;50.060;21.960;2022-12-20T11:43:16;10.53;;;4.23;;
68484;SDS011;55472;50.060;21.960;2022-12-20T11:52:33;14.00;;;5.15;;
68484;SDS011;55472;50.060;21.960;2022-12-20T11:57:42;13.97;;;5.73;;
68484;SDS011;55472;50.060;21.960;2022-12-20T12:00:24;14.02;;;5.10;;
68484;SDS011;55472;50.060;21.960;2022-12-20T12:02:58;8.48;;;3.25;;
68484;SDS011;55472;50.060;21.960;2022-12-20T12:05:51;16.63;;;5.72;;
68484;SDS011;55472;50.060;21.960;2022-12-20T12:08:31;14.43;;;6.15;;
68484;SDS011;55472;50.060;21.960;2022-12-20T12:13:55;11.75;;;5.38;;
68484;SDS011;55472;50.060;21.960;2022-12-20T12:17:06;13.98;;;5.30;;
68484;SDS011;55472;50.060;21.960;2022-12-20T12:20:03;13.02;;;4.38;;
68484;SDS011;55472;50.060;21.960;2022-12-20T12:26:57;17.83;;;6.97;;
68484;SDS011;55472;50.060;21.960;2022-12-20T12:29:24;24.52;;;10.07;;
68484;SDS011;55472;50.060;21.960;2022-12-20T12:32:13;25.55;;;9.65;;
68484;SDS011;55472;50.060;21.960;2022-12-20T12:41:36;8.57;;;3.27;;
68484;SDS011;55472;50.060;21.960;2022-12-20T12:47:39;14.90;;;4.70;;
68484;SDS011;55472;50.060;21.960;2022-12-20T12:50:47;15.32;;;5.38;;
68484;SDS011;55472;50.060;21.960;2022-12-20T12:59:39;15.93;;;6.28;;
68484;SDS011;55472;50.060;21.960;2022-12-20T13:04:29;16.08;;;5.53;;
68484;SDS011;55472;50.060;21.960;2022-12-20T13:09:57;16.97;;;6.60;;
68484;SDS011;55472;50.060;21.960;2022-12-20T13:17:49;15.48;;;5.32;;
68484;SDS011;55472;50.060;21.960;2022-12-20T13:20:23;15.18;;;5.03;;
68484;SDS011;55472;50.060;21.960;2022-12-20T13:25:37;19.65;;;6.90;;
68484;SDS011;55472;50.060;21.960;2022-12-20T13:30:42;16.48;;;6.30;;
68484;SDS011;55472;50.060;21.960;2022-12-20T13:41:50;17.90;;;6.32;;
68484;SDS011;55472;50.060;21.960;2022-12-20T13:44:43;15.20;;;6.25;;
68484;SDS011;55472;50.060;21.960;2022-12-20T13:49:50;19.33;;;6.63;;
68484;SDS011;55472;50.060;21.960;2022-12-20T13:52:19;16.00;;;5.97;;
68484;SDS011;55472;50.060;21.960;2022-12-20T13:54:54;24.45;;;7.70;;
68484;SDS011;55472;50.060;21.960;2022-12-20T13:57:27;18.00;;;6.70;;
68484;SDS011;55472;50.060;21.960;2022-12-20T14:00:12;15.55;;;5.78;;
68484;SDS011;55472;50.060;21.960;2022-12-20T14:02:47;19.77;;;5.97;;
68484;SDS011;55472;50.060;21.960;2022-12-20T14:05:15;17.55;;;6.00;;
68484;SDS011;55472;50.060;21.960;2022-12-20T14:07:57;16.67;;;6.05;;
68484;SDS011;55472;50.060;21.960;2022-12-20T14:10:31;16.60;;;6.13;;
68484;SDS011;55472;50.060;21.960;2022-12-20T14:12:59;18.20;;;6.07;;
68484;SDS011;55472;50.060;21.960;2022-12-20T14:15:28;13.17;;;5.20;;
68484;SDS011;55472;50.060;21.960;2022-12-20T14:18:03;11.27;;;4.13;;
68484;SDS011;55472;50.060;21.960;2022-12-20T14:21:01;16.98;;;5.80;;
68484;SDS011;55472;50.060;21.960;2022-12-20T14:26:10;17.83;;;7.15;;
68484;SDS011;55472;50.060;21.960;2022-12-20T14:28:56;13.50;;;5.00;;
68484;SDS011;55472;50.060;21.960;2022-12-20T14:36:36;19.17;;;7.13;;
68484;SDS011;55472;50.060;21.960;2022-12-20T14:39:29;23.05;;;7.38;;
68484;SDS011;55472;50.060;21.960;2022-12-20T14:44:37;26.73;;;8.60;;
68484;SDS011;55472;50.060;21.960;2022-12-20T14:47:15;27.73;;;9.55;;
68484;SDS011;55472;50.060;21.960;2022-12-20T14:49:51;37.65;;;11.07;;
68484;SDS011;55472;50.060;21.960;2022-12-20T14:52:45;33.80;;;11.02;;
68484;SDS011;55472;50.060;21.960;2022-12-20T14:55:15;34.30;;;11.30;;
68484;SDS011;55472;50.060;21.960;2022-12-20T14:57:57;19.42;;;7.03;;
68484;SDS011;55472;50.060;21.960;2022-12-20T15:00:28;14.75;;;6.20;;
68484;SDS011;55472;50.060;21.960;2022-12-20T15:05:47;21.08;;;7.75;;
68484;SDS011;55472;50.060;21.960;2022-12-20T15:08:18;25.63;;;8.57;;
68484;SDS011;55472;50.060;21.960;2022-12-20T15:16:16;27.98;;;9.20;;
68484;SDS011;55472;50.060;21.960;2022-12-20T15:18:49;21.40;;;7.07;;
68484;SDS011;55472;50.060;21.960;2022-12-20T15:24:00;20.23;;;7.22;;
68484;SDS011;55472;50.060;21.960;2022-12-20T15:26:33;17.35;;;6.55;;
68484;SDS011;55472;50.060;21.960;2022-12-20T15:29:00;19.55;;;6.57;;
68484;SDS011;55472;50.060;21.960;2022-12-20T15:31:27;27.67;;;9.45;;
68484;SDS011;55472;50.060;21.960;2022-12-20T15:33:54;25.37;;;9.60;;
68484;SDS011;55472;50.060;21.960;2022-12-20T15:36:25;17.35;;;6.43;;
68484;SDS011;55472;50.060;21.960;2022-12-20T15:38:54;18.83;;;7.13;;
68484;SDS011;55472;50.060;21.960;2022-12-20T15:43:57;20.95;;;6.72;;
68484;SDS011;55472;50.060;21.960;2022-12-20T15:46:25;14.73;;;4.90;;
68484;SDS011;55472;50.060;21.960;2022-12-20T15:48:52;16.25;;;5.75;;
68484;SDS011;55472;50.060;21.960;2022-12-20T15:54:02;16.20;;;6.30;;
68484;SDS011;55472;50.060;21.960;2022-12-20T15:56:31;23.65;;;8.02;;
68484;SDS011;55472;50.060;21.960;2022-12-20T15:58:58;18.30;;;6.77;;
68484;SDS011;55472;50.060;21.960;2022-12-20T16:01:24;17.73;;;6.32;;
68484;SDS011;55472;50.060;21.960;2022-12-20T16:03:58;18.88;;;6.97;;
68484;SDS011;55472;50.060;21.960;2022-12-20T16:06:24;26.42;;;8.18;;
68484;SDS011;55472;50.060;21.960;2022-12-20T16:08:50;24.95;;;8.48;;
68484;SDS011;55472;50.060;21.960;2022-12-20T16:11:21;26.87;;;8.50;;
68484;SDS011;55472;50.060;21.960;2022-12-20T16:13:52;35.10;;;10.57;;
68484;SDS011;55472;50.060;21.960;2022-12-20T16:16:21;28.38;;;9.65;;
68484;SDS011;55472;50.060;21.960;2022-12-20T16:18:50;24.83;;;9.00;;
68484;SDS011;55472;50.060;21.960;2022-12-20T16:21:22;23.02;;;7.85;;
68484;SDS011;55472;50.060;21.960;2022-12-20T16:23:56;25.67;;;7.33;;
68484;SDS011;55472;50.060;21.960;2022-12-20T16:26:24;29.55;;;10.95;;
68484;SDS011;55472;50.060;21.960;2022-12-20T16:28:51;26.65;;;8.25;;
68484;SDS011;55472;50.060;21.960;2022-12-20T16:31:29;19.88;;;7.05;;
68484;SDS011;55472;50.060;21.960;2022-12-20T16:33:59;21.42;;;7.97;;
68484;SDS011;55472;50.060;21.960;2022-12-20T16:36:28;21.70;;;7.27;;
68484;SDS011;55472;50.060;21.960;2022-12-20T16:38:55;22.80;;;7.45;;
68484;SDS011;55472;50.060;21.960;2022-12-20T16:41:23;22.17;;;6.65;;
68484;SDS011;55472;50.060;21.960;2022-12-20T16:43:52;18.15;;;8.18;;
68484;SDS011;55472;50.060;21.960;2022-12-20T16:46:24;21.15;;;7.43;;
68484;SDS011;55472;50.060;21.960;2022-12-20T16:48:54;23.73;;;8.10;;
68484;SDS011;55472;50.060;21.960;2022-12-20T16:51:28;17.35;;;5.95;;
68484;SDS011;55472;50.060;21.960;2022-12-20T16:54:20;13.45;;;5.35;;
68484;SDS011;55472;50.060;21.960;2022-12-20T16:56:47;21.52;;;6.95;;
68484;SDS011;55472;50.060;21.960;2022-12-20T16:59:29;23.92;;;6.93;;
68484;SDS011;55472;50.060;21.960;2022-12-20T17:01:55;22.47;;;7.27;;
68484;SDS011;55472;50.060;21.960;2022-12-20T17:04:22;21.00;;;6.80;;
68484;SDS011;55472;50.060;21.960;2022-12-20T17:06:49;16.15;;;5.35;;
68484;SDS011;55472;50.060;21.960;2022-12-20T17:09:16;14.60;;;5.60;;
68484;SDS011;55472;50.060;21.960;2022-12-20T17:11:44;21.88;;;7.47;;
68484;SDS011;55472;50.060;21.960;2022-12-20T17:14:11;16.53;;;6.20;;
68484;SDS011;55472;50.060;21.960;2022-12-20T17:16:38;17.58;;;6.43;;
68484;SDS011;55472;50.060;21.960;2022-12-20T17:19:05;18.27;;;5.97;;